TRAVEL WEATHER INFO - USA

NOAA Site Locator - Search for Station Information

CITY Forecast Link METAR Identifier Last Updated Temperature Dew Point Humidity Pressure Wind Direction Wind Speed Wind Gust Weather Rain/hr Google Maps
Albuqueque WEATHER KABQ 02/20/2018 08:52 28.4 15.8 59 29.95 NNW 6 6 Overcast 0.00 Albuquerque, NM Map
Anchorage WEATHER PAED 02/20/2018 09:07 32.0 32.0 100 30.41 WSW 4 4 --- Anchorage, AK Map
Atlanta WEATHER KATL 02/20/2018 08:52 32.0 32.0 100 30.38 SE 5 5 --- ATLANTA, GA Map
Birmingham WEATHER KBHM 02/20/2018 08:53 66.2 57.2 73 30.30 SE 11 11 Scattered Clouds --- Birmingham, AL Map
Boston WEATHER KBOS 02/20/2018 08:54 53.6 50.0 88 30.25 SW 9 9 Broken Clouds --- BOSTON, MA Map
Cheyenne WEATHER KCYS 02/20/2018 08:53 -11.2 -16.6 76 29.80 W 4 4 Clear --- Cheyenne, WY Map
Chicago O'Hare WEATHER KORD 02/20/2018 08:51 59.0 55.4 88 29.85 SSW 9 9 Overcast 0.14 CHICAGO, IL Map
Colorado Springs WEATHER KCOS 02/20/2018 09:11 32.0 32.0 100 29.82 SSE 9 9 --- Colo. Springs, CO Map
Dallas WEATHER KADS 02/20/2018 07:48 64.4 60.8 88 29.90 SSE 10 18 Overcast --- Dallas, TX Map
Denver WEATHER KDEN 02/20/2018 08:53 -2.2 -7.6 77 29.87 ESE 3 3 Broken Clouds 0.00 DENVER, CO Map
Detroit WEATHER KDET 02/20/2018 08:53 57.2 53.6 88 29.98 S 10 10 Overcast 0.00 Detroit, MI Map
Dover WEATHER KDOV 02/20/2018 09:13 60.8 57.2 88 30.37 SSW 13 13 Broken Clouds --- DOVER, DE Map
Fort Lauderdale WEATHER KFXE 02/20/2018 08:53 80.6 69.8 70 30.31 E 18 18 Scattered Clouds --- Fort Lauderdale, FL Map
Honolulu WEATHER PHNL 02/20/2018 08:53 64.4 57.2 77 29.93 N 0 0 Few Clouds --- Honolulu, HI Map
JFK Airport WEATHER KJFK 02/20/2018 08:57 32.0 32.0 100 30.35 SW 11 11 --- JFK Airport, NYC Map
Key West WEATHER KEYW 02/20/2018 08:53 78.8 69.8 74 30.26 ESE 16 16 Few Clouds --- Key West, FL Map
Los Angeles WEATHER KLAX 02/20/2018 08:53 44.6 15.8 31 30.10 NNE 5 5 Clear --- Los Angeles, CA Map
Louisville WEATHER KSDF 02/20/2018 08:56 66.2 57.2 73 30.16 S 14 14 Overcast --- Louisville, KY Map
Minneapolis WEATHER KMSP 02/20/2018 09:10 19.4 17.6 93 29.86 NNW 8 8 Overcast 0.00 Minneapolis, MN Map
Morgantown WEATHER KMGW 02/20/2018 08:53 66.2 48.2 52 30.28 S 4 4 Overcast --- Morgantown, WV Map
New Orleans WEATHER KNEW 02/20/2018 09:10 73.4 69.8 89 30.16 SE 10 10 --- New Orleans, LA Map
New York City WEATHER KNYC 02/20/2018 09:00 51.8 51.8 100 30.36 WSW 9 17 --- New York, NY Map
Omaha WEATHER KOMA 02/20/2018 08:52 19.4 14.0 79 30.00 NW 16 26 Broken Clouds --- Omaha, NE Map
Philadelphia WEATHER KPHL 02/20/2018 07:54 51.8 51.8 100 30.37 SW 11 11 0.00 Philadelphia, PA Map
Pittsburgh WEATHER KPIT 02/20/2018 08:51 64.4 53.6 68 30.21 SSW 13 13 Overcast --- Pittsburgh, PA Map
Seattle WEATHER KSEA 02/20/2018 08:53 28.4 19.4 69 30.17 SE 3 3 Overcast --- Seattle, WA Map
San Francisco WEATHER KSFO 02/20/2018 07:56 37.4 28.4 70 30.20 W 4 4 Clear --- San Francisco, CA Map
Washington DC WEATHER KDCA 02/20/2018 08:52 55.4 53.6 94 30.38 SSW 11 18 Broken Clouds --- Washington, DC Map